sensor_id;sensor_type;location;lat;lon;timestamp;P1;durP1;ratioP1;P2;durP2;ratioP2
64868;SDS011;51349;52.424;10.840;2023-05-10T05:54:21;16.27;;;5.50;;
64868;SDS011;51349;52.424;10.840;2023-05-10T05:59:22;7.38;;;4.90;;
64868;SDS011;51349;52.424;10.840;2023-05-10T06:04:26;5.72;;;5.03;;
64868;SDS011;51349;52.424;10.840;2023-05-10T06:09:27;5.32;;;4.82;;
64868;SDS011;51349;52.424;10.840;2023-05-10T06:19:51;6.47;;;5.40;;
64868;SDS011;51349;52.424;10.840;2023-05-10T06:24:51;9.35;;;6.10;;
64868;SDS011;51349;52.424;10.840;2023-05-10T06:35:28;5.22;;;4.80;;
64868;SDS011;51349;52.424;10.840;2023-05-10T06:52:14;5.40;;;4.95;;
64868;SDS011;51349;52.424;10.840;2023-05-10T07:03:12;5.13;;;4.72;;
64868;SDS011;51349;52.424;10.840;2023-05-10T07:13:54;5.00;;;4.70;;
64868;SDS011;51349;52.424;10.840;2023-05-10T07:24:23;6.10;;;5.50;;
64868;SDS011;51349;52.424;10.840;2023-05-10T07:35:21;6.30;;;5.05;;
64868;SDS011;51349;52.424;10.840;2023-05-10T07:40:24;5.85;;;5.25;;
64868;SDS011;51349;52.424;10.840;2023-05-10T07:45:25;6.20;;;5.70;;
64868;SDS011;51349;52.424;10.840;2023-05-10T07:55:57;5.43;;;4.93;;
64868;SDS011;51349;52.424;10.840;2023-05-10T08:01:16;7.32;;;6.15;;
64868;SDS011;51349;52.424;10.840;2023-05-10T08:06:18;7.70;;;7.03;;
64868;SDS011;51349;52.424;10.840;2023-05-10T08:16:59;6.13;;;5.53;;
64868;SDS011;51349;52.424;10.840;2023-05-10T08:33:25;6.72;;;6.10;;
64868;SDS011;51349;52.424;10.840;2023-05-10T08:38:26;8.32;;;5.25;;
64868;SDS011;51349;52.424;10.840;2023-05-10T08:43:30;6.68;;;5.40;;
64868;SDS011;51349;52.424;10.840;2023-05-10T08:54:15;6.05;;;5.53;;
64868;SDS011;51349;52.424;10.840;2023-05-10T09:04:39;4.70;;;4.20;;
64868;SDS011;51349;52.424;10.840;2023-05-10T09:38:01;6.28;;;5.70;;
64868;SDS011;51349;52.424;10.840;2023-05-10T09:43:06;6.38;;;5.80;;
64868;SDS011;51349;52.424;10.840;2023-05-10T09:48:07;6.55;;;5.72;;
64868;SDS011;51349;52.424;10.840;2023-05-10T09:53:08;6.30;;;5.80;;
64868;SDS011;51349;52.424;10.840;2023-05-10T09:58:09;15.40;;;11.30;;
64868;SDS011;51349;52.424;10.840;2023-05-10T10:03:14;7.05;;;6.25;;
64868;SDS011;51349;52.424;10.840;2023-05-10T10:08:15;7.10;;;6.55;;
64868;SDS011;51349;52.424;10.840;2023-05-10T10:13:17;6.32;;;5.72;;
64868;SDS011;51349;52.424;10.840;2023-05-10T10:18:18;5.90;;;5.47;;
64868;SDS011;51349;52.424;10.840;2023-05-10T10:23:23;6.32;;;5.80;;
64868;SDS011;51349;52.424;10.840;2023-05-10T10:28:26;5.55;;;5.15;;
64868;SDS011;51349;52.424;10.840;2023-05-10T10:33:39;6.00;;;5.60;;
64868;SDS011;51349;52.424;10.840;2023-05-10T10:49:32;5.32;;;5.03;;
64868;SDS011;51349;52.424;10.840;2023-05-10T10:54:38;4.85;;;4.55;;
64868;SDS011;51349;52.424;10.840;2023-05-10T10:59:42;6.25;;;5.85;;
64868;SDS011;51349;52.424;10.840;2023-05-10T11:04:44;4.88;;;4.53;;
64868;SDS011;51349;52.424;10.840;2023-05-10T11:09:46;6.95;;;6.38;;
64868;SDS011;51349;52.424;10.840;2023-05-10T11:14:50;4.28;;;4.05;;
64868;SDS011;51349;52.424;10.840;2023-05-10T11:20:07;3.25;;;3.05;;
64868;SDS011;51349;52.424;10.840;2023-05-10T11:25:09;3.03;;;2.83;;
64868;SDS011;51349;52.424;10.840;2023-05-10T11:30:11;3.60;;;3.33;;
64868;SDS011;51349;52.424;10.840;2023-05-10T11:35:12;2.50;;;2.30;;
64868;SDS011;51349;52.424;10.840;2023-05-10T11:40:13;2.50;;;2.30;;
64868;SDS011;51349;52.424;10.840;2023-05-10T11:45:14;2.90;;;2.70;;
64868;SDS011;51349;52.424;10.840;2023-05-10T11:50:15;2.65;;;2.45;;
64868;SDS011;51349;52.424;10.840;2023-05-10T11:55:17;2.08;;;1.98;;
64868;SDS011;51349;52.424;10.840;2023-05-10T12:00:17;2.45;;;2.35;;
64868;SDS011;51349;52.424;10.840;2023-05-10T12:05:18;11.23;;;8.15;;
64868;SDS011;51349;52.424;10.840;2023-05-10T12:10:25;2.00;;;1.90;;
64868;SDS011;51349;52.424;10.840;2023-05-10T12:15:27;1.95;;;1.15;;
64868;SDS011;51349;52.424;10.840;2023-05-10T12:20:28;1.65;;;1.10;;
64868;SDS011;51349;52.424;10.840;2023-05-10T12:25:32;1.48;;;1.38;;
64868;SDS011;51349;52.424;10.840;2023-05-10T12:30:35;0.90;;;0.90;;
64868;SDS011;51349;52.424;10.840;2023-05-10T12:35:43;1.00;;;1.00;;
64868;SDS011;51349;52.424;10.840;2023-05-10T13:35:47;10.55;;;7.95;;
64868;SDS011;51349;52.424;10.840;2023-05-10T13:40:47;1.60;;;1.50;;
64868;SDS011;51349;52.424;10.840;2023-05-10T13:45:52;1.52;;;1.42;;
64868;SDS011;51349;52.424;10.840;2023-05-10T13:50:53;1.63;;;1.63;;
64868;SDS011;51349;52.424;10.840;2023-05-10T13:55:53;1.30;;;1.30;;
64868;SDS011;51349;52.424;10.840;2023-05-10T14:00:54;1.60;;;1.50;;
64868;SDS011;51349;52.424;10.840;2023-05-10T14:05:55;1.27;;;1.27;;
64868;SDS011;51349;52.424;10.840;2023-05-10T14:10:56;1.48;;;1.40;;
64868;SDS011;51349;52.424;10.840;2023-05-10T14:15:57;1.30;;;1.20;;
64868;SDS011;51349;52.424;10.840;2023-05-10T14:21:01;1.02;;;1.02;;
64868;SDS011;51349;52.424;10.840;2023-05-10T14:26:02;1.40;;;1.40;;
64868;SDS011;51349;52.424;10.840;2023-05-10T14:31:03;1.30;;;1.30;;
64868;SDS011;51349;52.424;10.840;2023-05-10T14:36:03;1.30;;;1.30;;
64868;SDS011;51349;52.424;10.840;2023-05-10T14:41:04;1.10;;;1.10;;
64868;SDS011;51349;52.424;10.840;2023-05-10T14:46:05;1.23;;;1.20;;
64868;SDS011;51349;52.424;10.840;2023-05-10T14:51:06;1.00;;;1.00;;
64868;SDS011;51349;52.424;10.840;2023-05-10T14:56:06;1.35;;;1.25;;
64868;SDS011;51349;52.424;10.840;2023-05-10T15:01:07;1.10;;;1.10;;
64868;SDS011;51349;52.424;10.840;2023-05-10T15:06:08;1.02;;;1.02;;
64868;SDS011;51349;52.424;10.840;2023-05-10T15:11:09;1.33;;;1.33;;
64868;SDS011;51349;52.424;10.840;2023-05-10T15:16:09;1.20;;;1.20;;
64868;SDS011;51349;52.424;10.840;2023-05-10T15:21:11;1.10;;;1.10;;
64868;SDS011;51349;52.424;10.840;2023-05-10T15:26:15;1.38;;;1.38;;
64868;SDS011;51349;52.424;10.840;2023-05-10T15:31:15;1.27;;;1.13;;
64868;SDS011;51349;52.424;10.840;2023-05-10T15:36:16;1.10;;;1.10;;
64868;SDS011;51349;52.424;10.840;2023-05-10T15:41:17;1.00;;;1.00;;
64868;SDS011;51349;52.424;10.840;2023-05-10T15:46:18;1.23;;;1.10;;
64868;SDS011;51349;52.424;10.840;2023-05-10T15:51:19;1.15;;;1.15;;
64868;SDS011;51349;52.424;10.840;2023-05-10T15:56:19;1.17;;;1.10;;
64868;SDS011;51349;52.424;10.840;2023-05-10T16:01:21;3.17;;;1.10;;
64868;SDS011;51349;52.424;10.840;2023-05-10T16:06:21;1.15;;;1.05;;
64868;SDS011;51349;52.424;10.840;2023-05-10T16:11:22;1.10;;;1.10;;
64868;SDS011;51349;52.424;10.840;2023-05-10T16:16:23;1.00;;;1.00;;
64868;SDS011;51349;52.424;10.840;2023-05-10T16:21:23;1.00;;;1.00;;
64868;SDS011;51349;52.424;10.840;2023-05-10T16:26:24;1.17;;;1.13;;
64868;SDS011;51349;52.424;10.840;2023-05-10T16:31:25;1.20;;;1.20;;
64868;SDS011;51349;52.424;10.840;2023-05-10T16:36:25;0.90;;;0.90;;
64868;SDS011;51349;52.424;10.840;2023-05-10T16:41:27;1.30;;;1.20;;
64868;SDS011;51349;52.424;10.840;2023-05-10T16:46:27;1.40;;;1.30;;
64868;SDS011;51349;52.424;10.840;2023-05-10T16:51:28;1.30;;;1.30;;
64868;SDS011;51349;52.424;10.840;2023-05-10T16:56:29;1.50;;;1.40;;
64868;SDS011;51349;52.424;10.840;2023-05-10T17:01:29;1.58;;;1.48;;
64868;SDS011;51349;52.424;10.840;2023-05-10T17:06:30;1.40;;;1.30;;
64868;SDS011;51349;52.424;10.840;2023-05-10T17:11:31;1.70;;;1.60;;
64868;SDS011;51349;52.424;10.840;2023-05-10T17:16:32;1.60;;;1.50;;
64868;SDS011;51349;52.424;10.840;2023-05-10T17:21:33;1.20;;;1.10;;
64868;SDS011;51349;52.424;10.840;2023-05-10T17:26:33;1.20;;;1.10;;
64868;SDS011;51349;52.424;10.840;2023-05-10T17:31:34;1.30;;;1.20;;
64868;SDS011;51349;52.424;10.840;2023-05-10T17:36:34;1.00;;;1.00;;
64868;SDS011;51349;52.424;10.840;2023-05-10T17:41:35;1.45;;;1.33;;
64868;SDS011;51349;52.424;10.840;2023-05-10T17:46:36;1.35;;;1.25;;
64868;SDS011;51349;52.424;10.840;2023-05-10T17:51:36;1.30;;;1.20;;
64868;SDS011;51349;52.424;10.840;2023-05-10T17:56:38;2.50;;;1.40;;
64868;SDS011;51349;52.424;10.840;2023-05-10T18:01:39;1.67;;;1.60;;
64868;SDS011;51349;52.424;10.840;2023-05-10T18:06:40;2.80;;;1.83;;
64868;SDS011;51349;52.424;10.840;2023-05-10T18:11:41;2.10;;;1.88;;
64868;SDS011;51349;52.424;10.840;2023-05-10T18:16:41;2.22;;;2.03;;
64868;SDS011;51349;52.424;10.840;2023-05-10T18:21:42;2.17;;;2.08;;
64868;SDS011;51349;52.424;10.840;2023-05-10T18:26:43;2.42;;;2.20;;
64868;SDS011;51349;52.424;10.840;2023-05-10T18:31:43;2.60;;;2.40;;
64868;SDS011;51349;52.424;10.840;2023-05-10T18:36:44;2.60;;;2.40;;
64868;SDS011;51349;52.424;10.840;2023-05-10T18:41:45;2.75;;;2.60;;
64868;SDS011;51349;52.424;10.840;2023-05-10T18:46:45;3.30;;;3.00;;
64868;SDS011;51349;52.424;10.840;2023-05-10T18:51:46;2.70;;;2.50;;
64868;SDS011;51349;52.424;10.840;2023-05-10T18:56:47;3.10;;;2.70;;
64868;SDS011;51349;52.424;10.840;2023-05-10T19:01:48;2.80;;;2.60;;
64868;SDS011;51349;52.424;10.840;2023-05-10T19:06:49;6.07;;;5.53;;
64868;SDS011;51349;52.424;10.840;2023-05-10T19:11:50;3.85;;;3.55;;
64868;SDS011;51349;52.424;10.840;2023-05-10T19:16:51;3.88;;;3.58;;
64868;SDS011;51349;52.424;10.840;2023-05-10T19:21:52;3.28;;;3.05;;
64868;SDS011;51349;52.424;10.840;2023-05-10T19:26:52;3.03;;;2.83;;
64868;SDS011;51349;52.424;10.840;2023-05-10T19:31:55;4.05;;;3.70;;
64868;SDS011;51349;52.424;10.840;2023-05-10T19:36:55;4.50;;;3.40;;
64868;SDS011;51349;52.424;10.840;2023-05-10T19:41:56;4.20;;;3.90;;
64868;SDS011;51349;52.424;10.840;2023-05-10T19:46:57;3.97;;;3.67;;
64868;SDS011;51349;52.424;10.840;2023-05-10T19:51:57;3.42;;;3.13;;
64868;SDS011;51349;52.424;10.840;2023-05-10T19:56:58;3.65;;;3.45;;
64868;SDS011;51349;52.424;10.840;2023-05-10T20:01:59;5.40;;;5.00;;
64868;SDS011;51349;52.424;10.840;2023-05-10T20:06:59;5.63;;;5.20;;
64868;SDS011;51349;52.424;10.840;2023-05-10T20:12:00;3.28;;;3.08;;
64868;SDS011;51349;52.424;10.840;2023-05-10T20:17:01;3.90;;;3.47;;
64868;SDS011;51349;52.424;10.840;2023-05-10T20:22:02;3.95;;;3.65;;
64868;SDS011;51349;52.424;10.840;2023-05-10T20:27:04;5.82;;;5.32;;
64868;SDS011;51349;52.424;10.840;2023-05-10T20:32:05;5.28;;;4.40;;
64868;SDS011;51349;52.424;10.840;2023-05-10T20:37:05;4.40;;;4.10;;
64868;SDS011;51349;52.424;10.840;2023-05-10T20:42:07;4.35;;;3.67;;
64868;SDS011;51349;52.424;10.840;2023-05-10T20:47:08;4.13;;;3.83;;
64868;SDS011;51349;52.424;10.840;2023-05-10T20:52:08;6.00;;;5.28;;
64868;SDS011;51349;52.424;10.840;2023-05-10T20:57:09;5.72;;;5.32;;
64868;SDS011;51349;52.424;10.840;2023-05-10T21:02:16;4.95;;;4.55;;
64868;SDS011;51349;52.424;10.840;2023-05-10T21:07:16;5.30;;;4.80;;
64868;SDS011;51349;52.424;10.840;2023-05-10T21:12:20;4.18;;;3.85;;
64868;SDS011;51349;52.424;10.840;2023-05-10T21:17:20;4.70;;;4.40;;
64868;SDS011;51349;52.424;10.840;2023-05-10T21:22:21;4.93;;;4.53;;
64868;SDS011;51349;52.424;10.840;2023-05-10T21:27:22;5.72;;;5.28;;
64868;SDS011;51349;52.424;10.840;2023-05-10T21:32:22;5.80;;;5.00;;
64868;SDS011;51349;52.424;10.840;2023-05-10T21:37:26;5.07;;;4.68;;
64868;SDS011;51349;52.424;10.840;2023-05-10T21:42:26;4.43;;;4.13;;
64868;SDS011;51349;52.424;10.840;2023-05-10T21:47:27;5.20;;;4.80;;
64868;SDS011;51349;52.424;10.840;2023-05-10T21:52:27;5.38;;;4.93;;
64868;SDS011;51349;52.424;10.840;2023-05-10T21:57:28;5.05;;;4.65;;
64868;SDS011;51349;52.424;10.840;2023-05-10T22:02:29;4.82;;;4.43;;
64868;SDS011;51349;52.424;10.840;2023-05-10T22:07:30;4.85;;;4.55;;
64868;SDS011;51349;52.424;10.840;2023-05-10T22:12:31;5.20;;;4.72;;
64868;SDS011;51349;52.424;10.840;2023-05-10T22:17:32;4.60;;;4.30;;
64868;SDS011;51349;52.424;10.840;2023-05-10T22:22:32;4.95;;;4.65;;
64868;SDS011;51349;52.424;10.840;2023-05-10T22:27:36;5.20;;;4.80;;
64868;SDS011;51349;52.424;10.840;2023-05-10T22:32:37;4.82;;;4.43;;
64868;SDS011;51349;52.424;10.840;2023-05-10T22:37:37;5.05;;;4.65;;
64868;SDS011;51349;52.424;10.840;2023-05-10T22:42:38;5.47;;;5.07;;
64868;SDS011;51349;52.424;10.840;2023-05-10T22:47:38;4.90;;;4.60;;
64868;SDS011;51349;52.424;10.840;2023-05-10T22:52:39;5.07;;;4.57;;
64868;SDS011;51349;52.424;10.840;2023-05-10T22:57:40;4.70;;;4.30;;
64868;SDS011;51349;52.424;10.840;2023-05-10T23:02:41;5.13;;;4.72;;
64868;SDS011;51349;52.424;10.840;2023-05-10T23:07:42;5.55;;;5.15;;
64868;SDS011;51349;52.424;10.840;2023-05-10T23:12:42;5.20;;;4.80;;
64868;SDS011;51349;52.424;10.840;2023-05-10T23:17:43;5.00;;;4.60;;
64868;SDS011;51349;52.424;10.840;2023-05-10T23:22:44;5.00;;;4.60;;
64868;SDS011;51349;52.424;10.840;2023-05-10T23:27:44;5.25;;;4.85;;
64868;SDS011;51349;52.424;10.840;2023-05-10T23:32:48;6.68;;;4.75;;
64868;SDS011;51349;52.424;10.840;2023-05-10T23:37:49;5.10;;;4.70;;
64868;SDS011;51349;52.424;10.840;2023-05-10T23:42:49;5.25;;;4.88;;
64868;SDS011;51349;52.424;10.840;2023-05-10T23:47:50;5.43;;;5.03;;
64868;SDS011;51349;52.424;10.840;2023-05-10T23:52:51;5.25;;;4.85;;
64868;SDS011;51349;52.424;10.840;2023-05-10T23:57:52;5.90;;;5.40;;
